createdAt,value
2022-08-27T00:03:21.345Z,983.03
2022-08-27T00:06:47.765Z,980.37
2022-08-27T00:10:16.550Z,960.93
2022-08-27T00:13:43.083Z,982.87
2022-08-27T00:17:24.659Z,983.63
2022-08-27T00:20:51.647Z,987.37
2022-08-27T00:24:17.974Z,988.20
2022-08-27T00:27:45.659Z,999.07
2022-08-27T00:31:27.505Z,981.43
2022-08-27T00:34:54.340Z,986.07
2022-08-27T00:38:21.514Z,942.40
2022-08-27T00:41:49.577Z,943.70
2022-08-27T00:45:16.947Z,956.87
2022-08-27T00:48:45.102Z,966.50
2022-08-27T00:52:28.934Z,988.87
2022-08-27T00:55:59.684Z,992.97
2022-08-27T00:59:31.089Z,999.90
2022-08-27T01:03:01.073Z,999.90
2022-08-27T01:06:29.722Z,989.20
2022-08-27T01:10:02.483Z,992.07
2022-08-27T01:13:58.923Z,999.00
2022-08-27T01:17:30.905Z,986.63
2022-08-27T01:21:00.246Z,980.27
2022-08-27T01:24:34.421Z,986.27
2022-08-27T01:28:17.346Z,989.50
2022-08-27T01:31:48.380Z,982.43
2022-08-27T01:35:15.388Z,982.40
2022-08-27T01:38:43.402Z,971.40
2022-08-27T01:42:24.926Z,950.07
2022-08-27T01:45:52.967Z,965.10
2022-08-27T01:49:21.043Z,991.53
2022-08-27T01:53:02.479Z,978.37
2022-08-27T01:56:59.635Z,984.57
2022-08-27T02:00:28.855Z,988.10
2022-08-27T02:03:56.212Z,955.90
2022-08-27T02:07:41.424Z,955.47
2022-08-27T02:11:10.018Z,953.33
2022-08-27T02:14:37.849Z,947.73
2022-08-27T02:18:22.848Z,960.07
2022-08-27T02:21:49.843Z,950.27
2022-08-27T02:25:16.442Z,949.03
2022-08-27T02:28:43.980Z,980.97
2022-08-27T02:32:26.980Z,984.87
2022-08-27T02:35:58.561Z,999.90
2022-08-27T02:39:24.919Z,979.73
2022-08-27T02:42:51.379Z,982.80
2022-08-27T02:50:49.578Z,938.50
2022-08-27T02:54:16.096Z,977.83
2022-08-27T02:58:01.070Z,978.40
2022-08-27T03:06:20.747Z,969.13
2022-08-27T03:09:47.089Z,982.20
2022-08-27T03:13:13.445Z,976.97
2022-08-27T03:16:39.940Z,947.90
2022-08-27T03:20:07.202Z,949.43
2022-08-27T03:23:35.429Z,947.60
2022-08-27T03:27:03.569Z,921.50
2022-08-27T03:30:29.881Z,935.37
2022-08-27T03:33:57.437Z,929.93
2022-08-27T03:37:23.896Z,950.13
2022-08-27T03:40:52.605Z,923.13
2022-08-27T03:44:21.403Z,934.30
2022-08-27T03:47:48.483Z,943.23
2022-08-27T03:51:15.447Z,929.93
2022-08-27T03:54:43.239Z,932.63
2022-08-27T03:58:11.266Z,921.23
2022-08-27T04:01:38.604Z,917.30
2022-08-27T04:05:05.363Z,899.83
2022-08-27T04:08:33.100Z,892.87
2022-08-27T04:11:59.540Z,912.43
2022-08-27T04:15:27.484Z,887.40
2022-08-27T04:18:55.347Z,899.53
2022-08-27T04:22:22.222Z,918.63
2022-08-27T04:25:48.663Z,903.03
2022-08-27T04:29:15.610Z,917.67
2022-08-27T04:32:43.840Z,910.07
2022-08-27T04:36:11.122Z,912.17
2022-08-27T04:39:38.142Z,867.73
2022-08-27T04:43:04.637Z,885.07
2022-08-27T04:46:32.208Z,888.03
2022-08-27T04:50:01.837Z,859.70
2022-08-27T04:53:32.213Z,844.30
2022-08-27T04:56:58.521Z,848.93
2022-08-27T05:00:24.905Z,855.70
2022-08-27T05:03:51.334Z,828.53
2022-08-27T05:07:19.277Z,865.90
2022-08-27T05:10:46.021Z,873.83
2022-08-27T05:14:13.449Z,882.40
2022-08-27T05:17:39.865Z,859.57
2022-08-27T05:21:10.077Z,866.90
2022-08-27T05:24:40.547Z,894.87
2022-08-27T05:28:06.995Z,881.83
2022-08-27T05:31:35.521Z,859.30
2022-08-27T05:35:03.048Z,864.80
2022-08-27T05:38:30.482Z,895.30
2022-08-27T05:42:08.484Z,851.30
2022-08-27T05:45:34.860Z,859.27
2022-08-27T05:49:02.017Z,877.57
2022-08-27T05:52:29.551Z,879.30
2022-08-27T05:55:55.927Z,892.30
2022-08-27T05:59:40.972Z,870.37
2022-08-27T06:03:08.893Z,875.73
2022-08-27T06:06:35.835Z,901.80
2022-08-27T06:10:03.156Z,905.73
2022-08-27T06:13:31.163Z,910.77
2022-08-27T06:17:00.887Z,920.37
2022-08-27T06:20:27.457Z,899.90
2022-08-27T06:23:54.363Z,918.10
2022-08-27T06:27:21.420Z,909.63
2022-08-27T06:30:49.190Z,925.50
2022-08-27T06:34:16.249Z,903.13
2022-08-27T06:37:42.640Z,897.60
2022-08-27T06:41:23.178Z,908.87
2022-08-27T06:44:51.573Z,893.07
2022-08-27T06:48:17.902Z,918.10
2022-08-27T06:51:45.707Z,885.90
2022-08-27T06:55:12.804Z,915.87
2022-08-27T06:58:39.162Z,939.53
2022-08-27T07:02:12.906Z,902.13
2022-08-27T07:05:40.214Z,895.63
2022-08-27T07:09:07.620Z,917.60
2022-08-27T07:12:34.019Z,962.50
2022-08-27T07:16:01.253Z,941.67
2022-08-27T07:19:30.371Z,944.23
2022-08-27T07:22:59.072Z,937.80
2022-08-27T07:26:25.924Z,938.30
2022-08-27T07:29:53.059Z,939.30
2022-08-27T07:33:19.497Z,952.63
2022-08-27T07:36:47.252Z,935.60
2022-08-27T07:40:14.798Z,923.23
2022-08-27T07:43:59.299Z,909.80
2022-08-27T07:47:26.198Z,890.13
2022-08-27T07:50:53.946Z,882.40
2022-08-27T07:54:22.629Z,884.50
2022-08-27T07:57:49.591Z,916.03
2022-08-27T08:01:16.151Z,923.93
2022-08-27T08:04:42.551Z,922.97
2022-08-27T08:08:10.515Z,906.93
2022-08-27T08:11:37.734Z,870.53
2022-08-27T08:15:04.487Z,866.40
2022-08-27T08:18:32.310Z,868.83
2022-08-27T08:22:02.481Z,867.00
2022-08-27T08:25:38.661Z,879.83
2022-08-27T08:29:05.489Z,884.07
2022-08-27T08:32:32.098Z,872.17
2022-08-27T08:36:05.243Z,895.50
2022-08-27T08:39:32.040Z,885.47
2022-08-27T08:43:01.864Z,877.43
2022-08-27T08:46:33.210Z,873.10
2022-08-27T08:50:04.086Z,868.80
2022-08-27T08:53:39.307Z,838.83
2022-08-27T08:57:13.023Z,860.43
2022-08-27T09:00:55.799Z,848.23
2022-08-27T09:04:22.628Z,845.17
2022-08-27T09:07:52.393Z,854.53
2022-08-27T09:11:28.106Z,827.47
2022-08-27T09:14:58.743Z,809.73
2022-08-27T09:18:28.036Z,805.23
2022-08-27T09:21:58.335Z,838.67
2022-08-27T09:25:34.023Z,842.10
2022-08-27T09:29:22.368Z,805.37
2022-08-27T09:32:55.424Z,841.77
2022-08-27T09:36:23.992Z,814.63
2022-08-27T09:39:53.195Z,847.00
2022-08-27T09:43:26.990Z,834.43
2022-08-27T09:46:56.752Z,830.60
2022-08-27T09:50:24.759Z,839.97
2022-08-27T09:53:53.224Z,842.40
2022-08-27T09:57:28.785Z,882.83
2022-08-27T10:01:02.090Z,877.23
2022-08-27T10:04:34.843Z,873.83
2022-08-27T10:08:21.163Z,882.70
2022-08-27T10:11:54.570Z,900.80
2022-08-27T10:15:24.576Z,884.27
2022-08-27T10:19:12.367Z,922.63
2022-08-27T10:22:45.130Z,893.03
2022-08-27T10:26:18.740Z,904.93
2022-08-27T10:29:57.500Z,887.50
2022-08-27T10:33:35.975Z,902.37
2022-08-27T10:37:10.055Z,906.47
2022-08-27T10:40:44.450Z,887.37
2022-08-27T10:44:26.610Z,884.90
2022-08-27T10:48:03.017Z,638.13
2022-08-27T10:51:37.701Z,966.57
2022-08-27T10:55:10.456Z,0.50
2022-08-27T10:58:55.390Z,0.30
2022-08-27T11:02:30.512Z,0.30
2022-08-27T11:06:00.585Z,1.07
2022-08-27T11:09:32.657Z,998.13
2022-08-27T11:13:02.111Z,600.80
2022-08-27T11:16:33.728Z,0.27
2022-08-27T11:20:06.618Z,0.30
2022-08-27T11:23:38.655Z,0.30
2022-08-27T11:27:08.754Z,0.30
2022-08-27T11:30:42.144Z,0.20
2022-08-27T11:34:15.032Z,0.30
2022-08-27T11:37:52.674Z,0.50
2022-08-27T11:41:44.797Z,0.30
2022-08-27T11:45:17.258Z,0.30
2022-08-27T11:48:56.988Z,0.30
2022-08-27T11:52:29.336Z,0.30
2022-08-27T11:56:15.803Z,0.30
2022-08-27T11:59:43.574Z,0.30
2022-08-27T12:03:24.182Z,0.30
2022-08-27T12:07:06.760Z,0.20
2022-08-27T12:10:53.007Z,0.30
2022-08-27T12:14:26.030Z,0.30
2022-08-27T12:17:58.445Z,0.30
2022-08-27T12:21:31.388Z,0.30
2022-08-27T12:25:09.896Z,502.60
2022-08-27T12:28:37.631Z,999.90
2022-08-27T12:32:15.713Z,999.90
2022-08-27T12:35:44.526Z,999.37
2022-08-27T12:39:13.535Z,999.90
2022-08-27T12:42:45.893Z,327.10
2022-08-27T12:46:18.991Z,0.30
2022-08-27T12:49:52.580Z,0.30
2022-08-27T12:53:43.786Z,0.30
2022-08-27T12:57:29.943Z,0.30
2022-08-27T13:01:13.004Z,0.30
2022-08-27T13:04:40.980Z,0.53
2022-08-27T13:08:07.390Z,553.53
2022-08-27T13:11:34.443Z,999.90
2022-08-27T13:15:08.702Z,999.90
2022-08-27T13:18:36.883Z,466.97
2022-08-27T13:22:07.116Z,0.30
2022-08-27T13:25:34.785Z,1.30
2022-08-27T13:29:03.739Z,33.10
2022-08-27T13:32:32.217Z,463.57
2022-08-27T13:36:00.784Z,999.90
2022-08-27T13:39:29.024Z,999.90
2022-08-27T13:42:58.700Z,999.90
2022-08-27T13:46:29.690Z,999.90
2022-08-27T13:50:02.787Z,999.90
2022-08-27T13:53:49.070Z,999.90
2022-08-27T13:57:27.564Z,999.90
2022-08-27T14:00:54.191Z,999.90
2022-08-27T14:04:25.515Z,999.90
2022-08-27T14:07:53.062Z,999.90
2022-08-27T14:11:27.399Z,999.90
2022-08-27T14:14:55.318Z,999.90
2022-08-27T14:18:36.825Z,999.90
2022-08-27T14:22:11.813Z,999.90
2022-08-27T14:25:38.213Z,999.90
2022-08-27T14:29:12.318Z,999.90
2022-08-27T14:32:39.566Z,996.43
2022-08-27T14:36:09.684Z,975.83
2022-08-27T14:39:39.266Z,985.73
2022-08-27T14:43:08.638Z,970.17
2022-08-27T14:46:41.287Z,930.97
2022-08-27T14:50:11.910Z,916.73
2022-08-27T14:53:40.621Z,902.67
2022-08-27T14:57:07.268Z,884.17
2022-08-27T15:00:33.857Z,865.80
2022-08-27T15:04:00.235Z,851.30
2022-08-27T15:07:27.045Z,875.33
2022-08-27T15:10:57.043Z,866.97
2022-08-27T15:14:24.791Z,862.60
2022-08-27T15:17:51.420Z,880.87
2022-08-27T15:21:17.959Z,860.00
2022-08-27T15:24:47.827Z,853.03
2022-08-27T15:28:15.593Z,865.73
2022-08-27T15:31:42.019Z,941.13
2022-08-27T15:35:12.332Z,999.90
2022-08-27T15:38:39.186Z,319.42
2022-08-27T15:42:09.088Z,833.00
2022-08-27T15:45:38.542Z,849.93
2022-08-27T15:49:05.192Z,855.40
2022-08-27T15:52:40.519Z,867.13
2022-08-27T15:56:12.560Z,846.50
2022-08-27T15:59:41.523Z,839.70
2022-08-27T16:03:11.783Z,865.60
2022-08-27T16:06:39.329Z,983.07
2022-08-27T16:10:06.643Z,863.97
2022-08-27T16:13:33.007Z,999.90
2022-08-27T16:17:00.966Z,961.23
2022-08-27T16:20:27.693Z,831.83
2022-08-27T16:23:54.030Z,822.37
2022-08-27T16:27:20.466Z,850.60
2022-08-27T16:30:46.924Z,825.77
2022-08-27T16:34:16.227Z,808.17
2022-08-27T16:37:42.873Z,820.00
2022-08-27T16:41:09.699Z,823.47
2022-08-27T16:44:36.152Z,804.83
2022-08-27T16:48:19.852Z,821.23
2022-08-27T16:51:47.621Z,877.33
2022-08-27T16:55:14.602Z,939.13
2022-08-27T16:58:41.004Z,999.90
2022-08-27T17:02:09.373Z,918.17
2022-08-27T17:05:35.765Z,831.73
2022-08-27T17:09:05.194Z,809.13
2022-08-27T17:12:32.410Z,811.63
2022-08-27T17:16:02.020Z,845.27
2022-08-27T17:19:28.634Z,821.33
2022-08-27T17:22:55.124Z,815.90
2022-08-27T17:26:23.255Z,797.30
2022-08-27T17:29:49.626Z,792.10
2022-08-27T17:33:17.792Z,860.27
2022-08-27T17:36:44.557Z,829.33
2022-08-27T17:40:11.703Z,830.50
2022-08-27T17:43:39.707Z,815.40
2022-08-27T17:47:07.121Z,816.07
2022-08-27T17:50:33.839Z,776.40
2022-08-27T17:54:01.401Z,787.67
2022-08-27T17:57:29.195Z,815.30
2022-08-27T18:00:56.979Z,833.33
2022-08-27T18:04:23.925Z,805.10
2022-08-27T18:07:50.541Z,845.73
2022-08-27T18:11:18.516Z,799.10
2022-08-27T18:14:45.588Z,813.27
2022-08-27T18:18:13.755Z,821.90
2022-08-27T18:21:46.186Z,823.60
2022-08-27T18:25:13.858Z,816.93
2022-08-27T18:28:42.518Z,810.10
2022-08-27T18:32:09.762Z,759.43
2022-08-27T18:35:37.668Z,792.53
2022-08-27T18:39:04.264Z,795.67
2022-08-27T18:42:32.271Z,792.43
2022-08-27T18:45:58.807Z,801.27
2022-08-27T18:49:26.708Z,777.83
2022-08-27T18:52:54.830Z,770.30
2022-08-27T18:56:22.627Z,778.87
2022-08-27T18:59:49.024Z,795.83
2022-08-27T19:03:18.931Z,794.30
2022-08-27T19:06:46.586Z,780.47
2022-08-27T19:10:14.396Z,799.67
2022-08-27T19:13:40.960Z,778.87
2022-08-27T19:17:08.590Z,766.20
2022-08-27T19:20:35.233Z,756.57
2022-08-27T19:24:01.851Z,769.80
2022-08-27T19:27:30.305Z,776.53
2022-08-27T19:30:56.753Z,776.23
2022-08-27T19:34:25.230Z,761.43
2022-08-27T19:37:53.275Z,773.40
2022-08-27T19:41:21.435Z,730.83
2022-08-27T19:44:51.835Z,766.97
2022-08-27T19:48:19.143Z,768.37
2022-08-27T19:51:45.458Z,795.73
2022-08-27T19:55:14.311Z,775.03
2022-08-27T19:58:41.312Z,788.20
2022-08-27T20:02:10.245Z,764.43
2022-08-27T20:05:36.784Z,803.80
2022-08-27T20:09:06.553Z,786.53
2022-08-27T20:12:33.159Z,774.63
2022-08-27T20:15:59.495Z,787.43
2022-08-27T20:19:27.118Z,796.57
2022-08-27T20:22:55.094Z,797.80
2022-08-27T20:26:23.257Z,763.90
2022-08-27T20:29:49.771Z,758.37
2022-08-27T20:33:16.526Z,753.17
2022-08-27T20:36:44.312Z,773.07
2022-08-27T20:40:12.293Z,767.00
2022-08-27T20:42:46.270Z,768.97
2022-08-27T21:10:47.093Z,9.88
2022-08-27T21:14:14.193Z,3.77
2022-08-27T21:17:40.524Z,22.03
2022-08-27T21:21:08.750Z,3.17
2022-08-27T21:24:35.567Z,91.63
2022-08-27T21:28:04.456Z,3.97
2022-08-27T21:31:31.065Z,4.70
2022-08-27T21:34:57.491Z,4.27
2022-08-27T21:38:23.783Z,4.00
2022-08-27T21:41:50.117Z,5.67
2022-08-27T21:45:18.086Z,657.60
2022-08-27T21:48:46.245Z,584.70
2022-08-27T21:52:15.722Z,841.37
2022-08-27T21:55:42.098Z,74.37
2022-08-27T21:59:08.631Z,5.57
2022-08-27T22:02:40.330Z,5.00
2022-08-27T22:06:10.123Z,23.40
2022-08-27T22:09:36.513Z,782.53
2022-08-27T22:13:03.925Z,263.47
2022-08-27T22:16:30.378Z,23.40
2022-08-27T22:19:58.135Z,53.37
2022-08-27T22:23:24.459Z,7.30
2022-08-27T22:26:50.847Z,5.67
2022-08-27T22:30:17.321Z,6.47
2022-08-27T22:33:44.216Z,6.47
2022-08-27T22:37:11.992Z,7.60
2022-08-27T22:40:38.485Z,5.97
2022-08-27T22:44:05.239Z,6.00
2022-08-27T22:47:31.584Z,5.93
2022-08-27T22:51:00.429Z,5.53
2022-08-27T22:54:28.246Z,7.07
2022-08-27T22:57:55.103Z,6.77
2022-08-27T23:01:22.882Z,6.60
2022-08-27T23:04:56.667Z,6.57
2022-08-27T23:08:23.424Z,5.90
2022-08-27T23:11:51.243Z,7.70
2022-08-27T23:15:18.431Z,6.33
2022-08-27T23:18:45.692Z,12.13
2022-08-27T23:22:12.244Z,5.67
2022-08-27T23:25:56.075Z,8.20
2022-08-27T23:29:23.770Z,42.57
2022-08-27T23:32:53.759Z,79.80
2022-08-27T23:36:21.203Z,7.33
2022-08-27T23:39:48.514Z,6.63
2022-08-27T23:43:15.322Z,7.30
2022-08-27T23:46:43.266Z,6.00
2022-08-27T23:50:09.990Z,6.87
2022-08-27T23:53:36.308Z,7.40
2022-08-27T23:57:05.840Z,6.80
